sensor_id;sensor_type;location;lat;lon;timestamp;pressure;altitude;pressure_sealevel;temperature;humidity
6851;BME280;3464;42.728;23.296;2022-07-12T00:02:05;95737.29;;;14.14;85.04
6851;BME280;3464;42.728;23.296;2022-07-12T00:04:54;95739.41;;;14.06;84.95
6851;BME280;3464;42.728;23.296;2022-07-12T00:07:44;95739.83;;;14.06;85.00
6851;BME280;3464;42.728;23.296;2022-07-12T00:10:33;95736.86;;;14.03;85.17
6851;BME280;3464;42.728;23.296;2022-07-12T00:13:22;95741.11;;;14.09;85.43
6851;BME280;3464;42.728;23.296;2022-07-12T00:16:13;95739.40;;;14.04;85.67
6851;BME280;3464;42.728;23.296;2022-07-12T00:19:03;95740.20;;;13.95;85.74
6851;BME280;3464;42.728;23.296;2022-07-12T00:21:53;95734.68;;;13.86;86.05
6851;BME280;3464;42.728;23.296;2022-07-12T00:24:42;95735.16;;;13.94;85.92
6851;BME280;3464;42.728;23.296;2022-07-12T00:27:32;95740.16;;;13.83;86.30
6851;BME280;3464;42.728;23.296;2022-07-12T00:30:22;95733.42;;;13.83;86.30
6851;BME280;3464;42.728;23.296;2022-07-12T00:33:11;95728.34;;;13.77;86.93
6851;BME280;3464;42.728;23.296;2022-07-12T00:36:01;95732.14;;;13.75;87.28
6851;BME280;3464;42.728;23.296;2022-07-12T00:38:50;95735.88;;;13.65;88.23
6851;BME280;3464;42.728;23.296;2022-07-12T00:41:39;95730.00;;;13.72;88.19
6851;BME280;3464;42.728;23.296;2022-07-12T00:44:29;95728.30;;;13.67;88.42
6851;BME280;3464;42.728;23.296;2022-07-12T00:47:39;95727.45;;;13.66;88.57
6851;BME280;3464;42.728;23.296;2022-07-12T00:50:28;95722.36;;;13.61;88.92
6851;BME280;3464;42.728;23.296;2022-07-12T00:53:18;95723.22;;;13.64;89.15
6851;BME280;3464;42.728;23.296;2022-07-12T00:56:07;95720.26;;;13.56;89.72
6851;BME280;3464;42.728;23.296;2022-07-12T00:58:57;95721.93;;;13.56;90.13
6851;BME280;3464;42.728;23.296;2022-07-12T01:01:48;95720.70;;;13.63;89.98
6851;BME280;3464;42.728;23.296;2022-07-12T01:04:37;95726.17;;;13.63;90.14
6851;BME280;3464;42.728;23.296;2022-07-12T01:07:27;95729.97;;;13.64;89.80
6851;BME280;3464;42.728;23.296;2022-07-12T01:10:16;95732.92;;;13.67;89.23
6851;BME280;3464;42.728;23.296;2022-07-12T01:13:06;95725.72;;;13.59;89.75
6851;BME280;3464;42.728;23.296;2022-07-12T01:15:56;95727.02;;;13.67;88.73
6851;BME280;3464;42.728;23.296;2022-07-12T01:18:45;95727.00;;;13.61;88.59
6851;BME280;3464;42.728;23.296;2022-07-12T01:21:37;95728.72;;;13.67;88.41
6851;BME280;3464;42.728;23.296;2022-07-12T01:24:26;95727.47;;;13.70;88.52
6851;BME280;3464;42.728;23.296;2022-07-12T01:27:15;95722.38;;;13.64;88.43
6851;BME280;3464;42.728;23.296;2022-07-12T01:30:05;95716.48;;;13.68;88.50
6851;BME280;3464;42.728;23.296;2022-07-12T01:32:55;95724.47;;;13.59;88.40
6851;BME280;3464;42.728;23.296;2022-07-12T01:35:43;95727.03;;;13.68;87.76
6851;BME280;3464;42.728;23.296;2022-07-12T01:38:34;95727.92;;;13.75;87.47
6851;BME280;3464;42.728;23.296;2022-07-12T01:41:24;95726.23;;;13.78;87.73
6851;BME280;3464;42.728;23.296;2022-07-12T01:44:14;95728.31;;;13.73;88.00
6851;BME280;3464;42.728;23.296;2022-07-12T01:47:03;95724.05;;;13.60;88.42
6851;BME280;3464;42.728;23.296;2022-07-12T01:49:53;95726.55;;;13.54;88.40
6851;BME280;3464;42.728;23.296;2022-07-12T01:52:42;95721.98;;;13.66;87.80
6851;BME280;3464;42.728;23.296;2022-07-12T01:55:31;95721.54;;;13.67;88.42
6851;BME280;3464;42.728;23.296;2022-07-12T01:58:21;95722.80;;;13.58;88.42
6851;BME280;3464;42.728;23.296;2022-07-12T02:01:12;95717.30;;;13.56;88.74
6851;BME280;3464;42.728;23.296;2022-07-12T02:04:02;95718.48;;;13.41;90.35
6851;BME280;3464;42.728;23.296;2022-07-12T02:06:52;95720.64;;;13.47;90.12
6851;BME280;3464;42.728;23.296;2022-07-12T02:09:41;95718.08;;;13.45;90.09
6851;BME280;3464;42.728;23.296;2022-07-12T02:12:31;95719.75;;;13.41;90.30
6851;BME280;3464;42.728;23.296;2022-07-12T02:15:21;95722.66;;;13.34;90.83
6851;BME280;3464;42.728;23.296;2022-07-12T02:18:11;95725.18;;;13.28;91.31
6851;BME280;3464;42.728;23.296;2022-07-12T02:21:00;95723.53;;;13.38;91.57
6851;BME280;3464;42.728;23.296;2022-07-12T02:23:49;95720.97;;;13.30;91.67
6851;BME280;3464;42.728;23.296;2022-07-12T02:26:40;95724.75;;;13.32;91.65
6851;BME280;3464;42.728;23.296;2022-07-12T02:29:29;95725.17;;;13.29;91.70
6851;BME280;3464;42.728;23.296;2022-07-12T02:32:18;95724.69;;;13.19;92.12
6851;BME280;3464;42.728;23.296;2022-07-12T02:35:08;95730.63;;;13.27;92.15
6851;BME280;3464;42.728;23.296;2022-07-12T02:37:58;95725.12;;;13.22;92.63
6851;BME280;3464;42.728;23.296;2022-07-12T02:40:48;95729.36;;;13.25;92.54
6851;BME280;3464;42.728;23.296;2022-07-12T02:43:37;95726.82;;;13.26;93.06
6851;BME280;3464;42.728;23.296;2022-07-12T02:46:27;95729.34;;;13.26;93.06
6851;BME280;3464;42.728;23.296;2022-07-12T02:49:17;95735.70;;;13.29;92.96
6851;BME280;3464;42.728;23.296;2022-07-12T02:52:06;95735.30;;;13.34;92.34
6851;BME280;3464;42.728;23.296;2022-07-12T02:54:56;95735.72;;;13.33;92.10
6851;BME280;3464;42.728;23.296;2022-07-12T02:57:45;95728.56;;;13.31;91.46
6851;BME280;3464;42.728;23.296;2022-07-12T03:00:35;95734.02;;;13.33;91.90
6851;BME280;3464;42.728;23.296;2022-07-12T03:03:25;95741.20;;;13.33;91.92
6851;BME280;3464;42.728;23.296;2022-07-12T03:06:14;95741.25;;;13.39;91.94
6851;BME280;3464;42.728;23.296;2022-07-12T03:09:04;95745.50;;;13.47;90.81
6851;BME280;3464;42.728;23.296;2022-07-12T03:11:53;95746.91;;;13.78;88.95
6851;BME280;3464;42.728;23.296;2022-07-12T03:14:44;95752.45;;;13.94;88.51
6851;BME280;3464;42.728;23.296;2022-07-12T03:17:34;95757.97;;;14.09;87.30
6851;BME280;3464;42.728;23.296;2022-07-12T03:20:24;95761.02;;;14.29;86.88
6851;BME280;3464;42.728;23.296;2022-07-12T03:23:15;95756.41;;;14.51;85.57
6851;BME280;3464;42.728;23.296;2022-07-12T03:26:06;95763.16;;;14.63;84.55
6851;BME280;3464;42.728;23.296;2022-07-12T03:28:54;95769.92;;;14.94;82.70
6851;BME280;3464;42.728;23.296;2022-07-12T03:31:43;95762.74;;;14.77;82.21
6851;BME280;3464;42.728;23.296;2022-07-12T03:34:33;95761.92;;;14.90;80.71
6851;BME280;3464;42.728;23.296;2022-07-12T03:37:23;95766.13;;;15.11;80.42
6851;BME280;3464;42.728;23.296;2022-07-12T03:40:14;95760.22;;;18.82;68.30
6851;BME280;3464;42.728;23.296;2022-07-12T03:43:03;95753.69;;;21.88;55.12
6851;BME280;3464;42.728;23.296;2022-07-12T03:45:53;95753.27;;;24.27;47.70
6851;BME280;3464;42.728;23.296;2022-07-12T03:48:42;95741.47;;;25.32;43.24
6851;BME280;3464;42.728;23.296;2022-07-12T03:51:32;95754.08;;;26.66;41.58
6851;BME280;3464;42.728;23.296;2022-07-12T03:54:21;95745.11;;;29.29;36.65
6851;BME280;3464;42.728;23.296;2022-07-12T03:57:11;95747.62;;;28.13;35.60
6851;BME280;3464;42.728;23.296;2022-07-12T04:00:01;95747.81;;;28.42;35.56
6851;BME280;3464;42.728;23.296;2022-07-12T04:02:53;95755.16;;;27.93;35.64
6851;BME280;3464;42.728;23.296;2022-07-12T04:05:42;95753.42;;;29.58;34.08
6851;BME280;3464;42.728;23.296;2022-07-12T04:08:32;95751.00;;;30.27;32.32
6851;BME280;3464;42.728;23.296;2022-07-12T04:11:20;95749.51;;;31.91;30.31
6851;BME280;3464;42.728;23.296;2022-07-12T04:14:09;95763.67;;;31.21;29.99
6851;BME280;3464;42.728;23.296;2022-07-12T04:16:58;95757.33;;;31.25;30.10
6851;BME280;3464;42.728;23.296;2022-07-12T04:19:48;95761.06;;;33.05;27.89
6851;BME280;3464;42.728;23.296;2022-07-12T04:22:38;95769.75;;;34.05;26.60
6851;BME280;3464;42.728;23.296;2022-07-12T04:25:27;95758.02;;;37.34;24.34
6851;BME280;3464;42.728;23.296;2022-07-12T04:28:17;95761.48;;;38.71;22.54
6851;BME280;3464;42.728;23.296;2022-07-12T04:31:07;95764.07;;;35.69;23.57
6851;BME280;3464;42.728;23.296;2022-07-12T04:33:56;95770.98;;;35.06;24.65
6851;BME280;3464;42.728;23.296;2022-07-12T04:36:47;95768.88;;;38.44;22.25
6851;BME280;3464;42.728;23.296;2022-07-12T04:39:37;95775.58;;;39.21;21.49
6851;BME280;3464;42.728;23.296;2022-07-12T04:42:26;95773.83;;;40.30;20.32
6851;BME280;3464;42.728;23.296;2022-07-12T04:45:16;95766.37;;;41.76;19.30
6851;BME280;3464;42.728;23.296;2022-07-12T04:48:06;95764.99;;;41.03;19.55
6851;BME280;3464;42.728;23.296;2022-07-12T04:50:55;95764.59;;;41.27;19.51
6851;BME280;3464;42.728;23.296;2022-07-12T04:53:45;95763.97;;;41.08;19.36
6851;BME280;3464;42.728;23.296;2022-07-12T04:56:35;95768.17;;;39.29;20.75
6851;BME280;3464;42.728;23.296;2022-07-12T04:59:24;95766.30;;;40.14;19.70
6851;BME280;3464;42.728;23.296;2022-07-12T05:02:15;95770.13;;;37.36;22.01
6851;BME280;3464;42.728;23.296;2022-07-12T05:05:05;95771.05;;;39.40;20.66
6851;BME280;3464;42.728;23.296;2022-07-12T05:07:54;95771.09;;;36.86;22.95
6851;BME280;3464;42.728;23.296;2022-07-12T05:10:44;95765.19;;;39.64;20.60
6851;BME280;3464;42.728;23.296;2022-07-12T05:13:34;95769.31;;;38.40;21.55
6851;BME280;3464;42.728;23.296;2022-07-12T05:16:23;95768.93;;;40.14;20.23
6851;BME280;3464;42.728;23.296;2022-07-12T05:19:13;95769.45;;;37.63;22.41
6851;BME280;3464;42.728;23.296;2022-07-12T05:22:03;95764.47;;;39.58;20.60
6851;BME280;3464;42.728;23.296;2022-07-12T05:24:52;95770.61;;;39.62;20.67
6851;BME280;3464;42.728;23.296;2022-07-12T05:27:41;95767.66;;;41.23;19.72
6851;BME280;3464;42.728;23.296;2022-07-12T05:30:31;95778.58;;;36.60;22.59
6851;BME280;3464;42.728;23.296;2022-07-12T05:33:20;95770.44;;;38.14;22.18
6851;BME280;3464;42.728;23.296;2022-07-12T05:36:10;95768.69;;;39.42;21.17
6851;BME280;3464;42.728;23.296;2022-07-12T05:39:00;95772.31;;;38.13;21.39
6851;BME280;3464;42.728;23.296;2022-07-12T05:41:49;95766.63;;;36.67;22.86
6851;BME280;3464;42.728;23.296;2022-07-12T05:44:39;95762.55;;;38.09;22.34
6851;BME280;3464;42.728;23.296;2022-07-12T05:47:30;95767.27;;;41.31;19.86
6851;BME280;3464;42.728;23.296;2022-07-12T05:50:19;95763.23;;;42.33;19.27
6851;BME280;3464;42.728;23.296;2022-07-12T05:53:09;95769.02;;;41.35;19.33
6851;BME280;3464;42.728;23.296;2022-07-12T05:56:03;95759.60;;;42.30;19.31
6851;BME280;3464;42.728;23.296;2022-07-12T05:58:52;95757.20;;;42.04;19.08
6851;BME280;3464;42.728;23.296;2022-07-12T06:01:42;95765.08;;;43.30;18.40
6851;BME280;3464;42.728;23.296;2022-07-12T06:04:32;95757.30;;;44.22;17.53
6851;BME280;3464;42.728;23.296;2022-07-12T06:07:21;95753.19;;;41.19;19.77
6851;BME280;3464;42.728;23.296;2022-07-12T06:10:10;95756.71;;;43.29;18.48
6851;BME280;3464;42.728;23.296;2022-07-12T06:13:00;95758.69;;;42.78;18.40
6851;BME280;3464;42.728;23.296;2022-07-12T06:15:49;95753.69;;;39.69;20.45
6851;BME280;3464;42.728;23.296;2022-07-12T06:18:39;95750.42;;;39.88;20.60
6851;BME280;3464;42.728;23.296;2022-07-12T06:21:27;95750.47;;;38.44;21.83
6851;BME280;3464;42.728;23.296;2022-07-12T06:24:17;95743.73;;;38.96;21.03
6851;BME280;3464;42.728;23.296;2022-07-12T06:27:07;95747.28;;;38.55;21.15
6851;BME280;3464;42.728;23.296;2022-07-12T06:29:56;95741.08;;;37.33;22.39
6851;BME280;3464;42.728;23.296;2022-07-12T06:32:46;95748.87;;;38.84;21.20
6851;BME280;3464;42.728;23.296;2022-07-12T06:35:36;95743.84;;;37.31;22.92
6851;BME280;3464;42.728;23.296;2022-07-12T06:38:26;95744.28;;;36.37;23.81
6851;BME280;3464;42.728;23.296;2022-07-12T06:41:15;95740.34;;;36.67;22.77
6851;BME280;3464;42.728;23.296;2022-07-12T06:44:04;95740.21;;;36.69;23.72
6851;BME280;3464;42.728;23.296;2022-07-12T06:46:54;95739.45;;;38.99;21.11
6851;BME280;3464;42.728;23.296;2022-07-12T06:49:44;95741.33;;;38.20;21.57
6851;BME280;3464;42.728;23.296;2022-07-12T06:52:34;95736.37;;;36.17;22.39
6851;BME280;3464;42.728;23.296;2022-07-12T06:55:22;95738.20;;;38.58;21.05
6851;BME280;3464;42.728;23.296;2022-07-12T06:58:11;95735.30;;;38.92;20.56
6851;BME280;3464;42.728;23.296;2022-07-12T07:01:00;95739.94;;;38.58;21.25
6851;BME280;3464;42.728;23.296;2022-07-12T07:03:49;95732.39;;;36.53;22.31
6851;BME280;3464;42.728;23.296;2022-07-12T07:06:38;95735.07;;;37.02;22.28
6851;BME280;3464;42.728;23.296;2022-07-12T07:09:27;95728.69;;;38.20;21.16
6851;BME280;3464;42.728;23.296;2022-07-12T07:12:16;95736.82;;;38.49;21.23
6851;BME280;3464;42.728;23.296;2022-07-12T07:15:06;95725.87;;;37.89;21.97
6851;BME280;3464;42.728;23.296;2022-07-12T07:17:55;95732.64;;;37.96;21.91
6851;BME280;3464;42.728;23.296;2022-07-12T07:20:44;95726.19;;;36.84;22.36
6851;BME280;3464;42.728;23.296;2022-07-12T07:23:33;95725.71;;;38.37;21.16
6851;BME280;3464;42.728;23.296;2022-07-12T07:26:23;95728.25;;;37.39;22.10
6851;BME280;3464;42.728;23.296;2022-07-12T07:29:12;95728.23;;;37.54;21.72
6851;BME280;3464;42.728;23.296;2022-07-12T07:32:06;95726.64;;;39.23;20.33
6851;BME280;3464;42.728;23.296;2022-07-12T07:34:55;95729.70;;;40.53;19.81
6851;BME280;3464;42.728;23.296;2022-07-12T07:37:44;95721.73;;;37.58;21.17
6851;BME280;3464;42.728;23.296;2022-07-12T07:40:33;95719.99;;;36.95;22.37
6851;BME280;3464;42.728;23.296;2022-07-12T07:43:22;95716.25;;;39.21;20.43
6851;BME280;3464;42.728;23.296;2022-07-12T07:46:12;95720.16;;;40.31;19.60
6851;BME280;3464;42.728;23.296;2022-07-12T07:49:00;95724.12;;;38.35;20.01
6851;BME280;3464;42.728;23.296;2022-07-12T07:51:49;95706.50;;;39.27;19.42
6851;BME280;3464;42.728;23.296;2022-07-12T07:54:39;95710.44;;;39.58;18.85
6851;BME280;3464;42.728;23.296;2022-07-12T07:57:28;95715.94;;;37.54;20.51
6851;BME280;3464;42.728;23.296;2022-07-12T08:00:17;95714.03;;;36.53;21.58
6851;BME280;3464;42.728;23.296;2022-07-12T08:03:06;95710.00;;;40.73;19.16
6851;BME280;3464;42.728;23.296;2022-07-12T08:05:55;95712.18;;;42.44;17.64
6851;BME280;3464;42.728;23.296;2022-07-12T08:08:44;95706.78;;;41.81;18.18
6851;BME280;3464;42.728;23.296;2022-07-12T08:11:33;95704.91;;;43.04;16.69
6851;BME280;3464;42.728;23.296;2022-07-12T08:14:23;95707.09;;;39.12;19.21
6851;BME280;3464;42.728;23.296;2022-07-12T08:17:12;95708.50;;;38.93;19.40
6851;BME280;3464;42.728;23.296;2022-07-12T08:20:01;95701.50;;;38.10;19.93
6851;BME280;3464;42.728;23.296;2022-07-12T08:22:50;95698.82;;;39.77;19.72
6851;BME280;3464;42.728;23.296;2022-07-12T08:25:40;95693.61;;;40.19;18.79
6851;BME280;3464;42.728;23.296;2022-07-12T08:28:29;95692.15;;;41.98;16.78
6851;BME280;3464;42.728;23.296;2022-07-12T08:31:18;95689.83;;;41.14;17.45
6851;BME280;3464;42.728;23.296;2022-07-12T08:34:07;95686.92;;;37.88;19.19
6851;BME280;3464;42.728;23.296;2022-07-12T08:36:57;95693.19;;;36.21;20.59
6851;BME280;3464;42.728;23.296;2022-07-12T08:39:45;95682.50;;;36.74;21.35
6851;BME280;3464;42.728;23.296;2022-07-12T08:42:35;95694.83;;;35.24;22.26
6851;BME280;3464;42.728;23.296;2022-07-12T08:45:23;95692.34;;;32.33;25.01
6851;BME280;3464;42.728;23.296;2022-07-12T08:48:13;95695.64;;;30.27;27.62
6851;BME280;3464;42.728;23.296;2022-07-12T08:51:09;95698.97;;;28.59;29.24
6851;BME280;3464;42.728;23.296;2022-07-12T08:54:05;95696.28;;;27.63;30.94
6851;BME280;3464;42.728;23.296;2022-07-12T08:56:55;95685.52;;;28.60;29.75
6851;BME280;3464;42.728;23.296;2022-07-12T08:59:46;95676.61;;;28.95;29.46
6851;BME280;3464;42.728;23.296;2022-07-12T09:02:42;95680.39;;;28.74;30.62
6851;BME280;3464;42.728;23.296;2022-07-12T09:05:22;95688.09;;;27.89;31.48
6851;BME280;3464;42.728;23.296;2022-07-12T09:08:11;95690.30;;;28.27;30.95
6851;BME280;3464;42.728;23.296;2022-07-12T09:11:02;95689.67;;;28.23;30.48
6851;BME280;3464;42.728;23.296;2022-07-12T09:13:54;95678.33;;;28.33;29.72
6851;BME280;3464;42.728;23.296;2022-07-12T09:16:43;95676.07;;;27.96;29.74
6851;BME280;3464;42.728;23.296;2022-07-12T09:19:32;95674.08;;;28.56;30.59
6851;BME280;3464;42.728;23.296;2022-07-12T09:22:21;95672.69;;;29.33;28.58
6851;BME280;3464;42.728;23.296;2022-07-12T09:25:20;95666.86;;;29.30;28.53
6851;BME280;3464;42.728;23.296;2022-07-12T09:28:10;95668.71;;;27.55;30.28
6851;BME280;3464;42.728;23.296;2022-07-12T09:30:59;95669.34;;;27.59;30.39
6851;BME280;3464;42.728;23.296;2022-07-12T09:36:54;95663.59;;;27.62;31.21
6851;BME280;3464;42.728;23.296;2022-07-12T09:39:44;95659.83;;;27.26;31.30
6851;BME280;3464;42.728;23.296;2022-07-12T09:42:34;95673.52;;;27.37;31.87
6851;BME280;3464;42.728;23.296;2022-07-12T09:45:23;95661.89;;;27.86;32.46
6851;BME280;3464;42.728;23.296;2022-07-12T09:48:13;95665.13;;;28.54;29.88
6851;BME280;3464;42.728;23.296;2022-07-12T09:51:02;95661.91;;;29.03;29.90
6851;BME280;3464;42.728;23.296;2022-07-12T09:53:52;95659.94;;;28.70;29.89
6851;BME280;3464;42.728;23.296;2022-07-12T09:56:42;95650.31;;;28.79;32.85
6851;BME280;3464;42.728;23.296;2022-07-12T09:59:32;95655.63;;;28.69;30.28
6851;BME280;3464;42.728;23.296;2022-07-12T10:02:22;95664.27;;;27.49;30.87
6851;BME280;3464;42.728;23.296;2022-07-12T10:05:11;95673.89;;;26.94;31.50
6851;BME280;3464;42.728;23.296;2022-07-12T10:08:00;95656.28;;;27.53;30.85
6851;BME280;3464;42.728;23.296;2022-07-12T10:10:49;95652.80;;;28.66;29.26
6851;BME280;3464;42.728;23.296;2022-07-12T10:13:39;95653.19;;;28.97;31.99
6851;BME280;3464;42.728;23.296;2022-07-12T10:16:33;95651.52;;;28.65;28.74
6851;BME280;3464;42.728;23.296;2022-07-12T10:19:30;95652.83;;;28.88;29.11
6851;BME280;3464;42.728;23.296;2022-07-12T10:22:19;95653.06;;;27.57;28.71
6851;BME280;3464;42.728;23.296;2022-07-12T10:25:40;95664.50;;;26.93;29.90
6851;BME280;3464;42.728;23.296;2022-07-12T10:28:12;95656.66;;;26.95;30.28
6851;BME280;3464;42.728;23.296;2022-07-12T10:31:04;95639.18;;;27.51;30.34
6851;BME280;3464;42.728;23.296;2022-07-12T10:40:14;95640.70;;;28.58;29.79
6851;BME280;3464;42.728;23.296;2022-07-12T10:43:25;95628.40;;;29.22;27.55
6851;BME280;3464;42.728;23.296;2022-07-12T10:46:25;95627.41;;;29.82;30.28
6851;BME280;3464;42.728;23.296;2022-07-12T10:49:23;95629.02;;;30.12;28.55
6851;BME280;3464;42.728;23.296;2022-07-12T10:52:24;95629.06;;;29.83;27.15
6851;BME280;3464;42.728;23.296;2022-07-12T10:55:29;95626.64;;;29.00;29.04
6851;BME280;3464;42.728;23.296;2022-07-12T10:58:30;95631.61;;;29.12;28.46
6851;BME280;3464;42.728;23.296;2022-07-12T11:01:21;95637.89;;;29.94;28.67
6851;BME280;3464;42.728;23.296;2022-07-12T11:04:14;95621.70;;;29.18;29.15
6851;BME280;3464;42.728;23.296;2022-07-12T11:07:03;95639.06;;;28.33;28.84
6851;BME280;3464;42.728;23.296;2022-07-12T11:09:53;95638.27;;;27.68;30.35
6851;BME280;3464;42.728;23.296;2022-07-12T11:12:41;95630.92;;;27.93;30.32
6851;BME280;3464;42.728;23.296;2022-07-12T11:15:32;95632.84;;;27.98;29.87
6851;BME280;3464;42.728;23.296;2022-07-12T11:18:37;95628.41;;;28.55;29.84
6851;BME280;3464;42.728;23.296;2022-07-12T11:21:28;95636.80;;;27.79;30.42
6851;BME280;3464;42.728;23.296;2022-07-12T11:24:26;95647.95;;;27.14;30.85
6851;BME280;3464;42.728;23.296;2022-07-12T11:27:17;95641.74;;;26.83;31.44
6851;BME280;3464;42.728;23.296;2022-07-12T11:30:06;95642.95;;;26.67;31.52
6851;BME280;3464;42.728;23.296;2022-07-12T11:32:55;95643.63;;;26.71;31.63
6851;BME280;3464;42.728;23.296;2022-07-12T11:35:55;95626.80;;;27.06;31.42
6851;BME280;3464;42.728;23.296;2022-07-12T11:38:45;95629.16;;;26.94;30.65
6851;BME280;3464;42.728;23.296;2022-07-12T11:41:35;95629.05;;;25.38;32.91
6851;BME280;3464;42.728;23.296;2022-07-12T11:47:21;95627.18;;;26.18;33.11
6851;BME280;3464;42.728;23.296;2022-07-12T11:50:16;95626.38;;;26.17;32.54
6851;BME280;3464;42.728;23.296;2022-07-12T11:53:03;95618.82;;;26.31;31.32
6851;BME280;3464;42.728;23.296;2022-07-12T11:55:54;95626.03;;;26.15;30.64
6851;BME280;3464;42.728;23.296;2022-07-12T11:58:54;95621.29;;;26.06;30.59
6851;BME280;3464;42.728;23.296;2022-07-12T12:01:32;95623.33;;;26.00;30.87
6851;BME280;3464;42.728;23.296;2022-07-12T12:04:21;95624.17;;;25.71;31.87
6851;BME280;3464;42.728;23.296;2022-07-12T12:07:11;95615.88;;;26.21;32.24
6851;BME280;3464;42.728;23.296;2022-07-12T12:10:11;95622.27;;;26.04;32.32
6851;BME280;3464;42.728;23.296;2022-07-12T12:13:00;95615.33;;;26.50;31.96
6851;BME280;3464;42.728;23.296;2022-07-12T12:15:51;95613.47;;;26.71;32.15
6851;BME280;3464;42.728;23.296;2022-07-12T12:18:40;95615.00;;;27.09;32.45
6851;BME280;3464;42.728;23.296;2022-07-12T12:21:29;95606.52;;;26.64;32.20
6851;BME280;3464;42.728;23.296;2022-07-12T12:24:19;95617.67;;;26.01;32.06
6851;BME280;3464;42.728;23.296;2022-07-12T12:27:22;95616.30;;;26.30;31.04
6851;BME280;3464;42.728;23.296;2022-07-12T12:30:04;95614.17;;;26.38;31.65
6851;BME280;3464;42.728;23.296;2022-07-12T12:32:58;95620.16;;;26.30;32.66
6851;BME280;3464;42.728;23.296;2022-07-12T12:35:48;95611.95;;;26.67;32.30
6851;BME280;3464;42.728;23.296;2022-07-12T12:38:38;95605.25;;;26.98;33.78
6851;BME280;3464;42.728;23.296;2022-07-12T12:41:28;95602.00;;;26.68;32.08
6851;BME280;3464;42.728;23.296;2022-07-12T12:44:16;95610.05;;;26.07;32.57
6851;BME280;3464;42.728;23.296;2022-07-12T12:47:06;95611.90;;;25.67;32.60
6851;BME280;3464;42.728;23.296;2022-07-12T12:50:01;95614.17;;;25.64;33.28
6851;BME280;3464;42.728;23.296;2022-07-12T12:52:51;95601.94;;;26.06;32.56
6851;BME280;3464;42.728;23.296;2022-07-12T12:55:40;95604.91;;;26.43;33.35
6851;BME280;3464;42.728;23.296;2022-07-12T12:58:29;95615.59;;;26.27;32.21
6851;BME280;3464;42.728;23.296;2022-07-12T13:01:18;95603.05;;;26.55;32.47
6851;BME280;3464;42.728;23.296;2022-07-12T13:04:08;95602.63;;;26.55;32.26
6851;BME280;3464;42.728;23.296;2022-07-12T13:06:57;95594.95;;;26.35;32.96
6851;BME280;3464;42.728;23.296;2022-07-12T13:09:48;95596.16;;;26.46;32.06
6851;BME280;3464;42.728;23.296;2022-07-12T13:12:39;95608.34;;;26.35;32.54
6851;BME280;3464;42.728;23.296;2022-07-12T13:15:28;95601.23;;;25.93;31.60
6851;BME280;3464;42.728;23.296;2022-07-12T13:18:17;95594.57;;;26.44;33.57
6851;BME280;3464;42.728;23.296;2022-07-12T13:21:07;95598.47;;;26.87;31.66
6851;BME280;3464;42.728;23.296;2022-07-12T13:23:59;95590.38;;;26.77;32.12
6851;BME280;3464;42.728;23.296;2022-07-12T13:26:49;95600.11;;;26.00;33.31
6851;BME280;3464;42.728;23.296;2022-07-12T13:29:38;95596.24;;;26.35;34.10
6851;BME280;3464;42.728;23.296;2022-07-12T13:32:28;95592.03;;;26.78;32.92
6851;BME280;3464;42.728;23.296;2022-07-12T13:35:17;95595.16;;;26.93;33.49
6851;BME280;3464;42.728;23.296;2022-07-12T13:38:06;95591.94;;;26.27;33.03
6851;BME280;3464;42.728;23.296;2022-07-12T13:40:55;95596.42;;;26.14;32.25
6851;BME280;3464;42.728;23.296;2022-07-12T13:43:45;95588.36;;;26.65;33.77
6851;BME280;3464;42.728;23.296;2022-07-12T13:46:34;95590.21;;;26.97;35.88
6851;BME280;3464;42.728;23.296;2022-07-12T13:49:24;95583.70;;;27.07;34.49
6851;BME280;3464;42.728;23.296;2022-07-12T13:52:12;95583.64;;;27.25;32.87
6851;BME280;3464;42.728;23.296;2022-07-12T13:55:02;95579.91;;;27.55;33.04
6851;BME280;3464;42.728;23.296;2022-07-12T13:57:51;95585.11;;;27.21;31.08
6851;BME280;3464;42.728;23.296;2022-07-12T14:00:40;95581.14;;;27.88;33.21
6851;BME280;3464;42.728;23.296;2022-07-12T14:03:29;95584.41;;;28.07;31.57
6851;BME280;3464;42.728;23.296;2022-07-12T14:06:19;95584.05;;;27.58;31.29
6851;BME280;3464;42.728;23.296;2022-07-12T14:09:08;95588.93;;;27.47;30.90
6851;BME280;3464;42.728;23.296;2022-07-12T14:11:57;95576.48;;;26.86;31.10
6851;BME280;3464;42.728;23.296;2022-07-12T14:14:46;95586.25;;;26.82;31.34
6851;BME280;3464;42.728;23.296;2022-07-12T14:17:42;95581.98;;;26.81;32.92
6851;BME280;3464;42.728;23.296;2022-07-12T14:20:30;95586.44;;;27.12;33.20
6851;BME280;3464;42.728;23.296;2022-07-12T14:23:20;95590.06;;;27.17;34.43
6851;BME280;3464;42.728;23.296;2022-07-12T14:26:10;95589.38;;;27.13;31.27
6851;BME280;3464;42.728;23.296;2022-07-12T14:28:59;95588.20;;;26.85;31.53
6851;BME280;3464;42.728;23.296;2022-07-12T14:31:49;95587.67;;;27.22;34.09
6851;BME280;3464;42.728;23.296;2022-07-12T14:34:38;95585.35;;;26.82;32.21
6851;BME280;3464;42.728;23.296;2022-07-12T14:37:30;95584.91;;;26.66;35.80
6851;BME280;3464;42.728;23.296;2022-07-12T14:40:20;95584.11;;;26.90;31.75
6851;BME280;3464;42.728;23.296;2022-07-12T14:43:09;95579.09;;;26.34;33.07
6851;BME280;3464;42.728;23.296;2022-07-12T14:45:58;95584.81;;;26.41;31.90
6851;BME280;3464;42.728;23.296;2022-07-12T14:48:48;95584.23;;;26.17;32.99
6851;BME280;3464;42.728;23.296;2022-07-12T14:51:38;95579.42;;;26.01;34.00
6851;BME280;3464;42.728;23.296;2022-07-12T14:54:28;95577.41;;;25.98;32.63
6851;BME280;3464;42.728;23.296;2022-07-12T14:57:17;95586.30;;;25.63;33.21
6851;BME280;3464;42.728;23.296;2022-07-12T15:00:08;95580.92;;;26.15;34.84
6851;BME280;3464;42.728;23.296;2022-07-12T15:02:58;95579.77;;;26.12;33.26
6851;BME280;3464;42.728;23.296;2022-07-12T15:05:48;95573.44;;;25.71;34.25
6851;BME280;3464;42.728;23.296;2022-07-12T15:08:38;95576.77;;;26.11;33.46
6851;BME280;3464;42.728;23.296;2022-07-12T15:11:28;95590.84;;;26.14;33.73
6851;BME280;3464;42.728;23.296;2022-07-12T15:14:17;95588.28;;;25.47;34.48
6851;BME280;3464;42.728;23.296;2022-07-12T15:17:07;95582.98;;;25.69;34.75
6851;BME280;3464;42.728;23.296;2022-07-12T15:19:58;95580.33;;;25.33;34.63
6851;BME280;3464;42.728;23.296;2022-07-12T15:22:48;95572.84;;;25.66;35.59
6851;BME280;3464;42.728;23.296;2022-07-12T15:25:37;95580.80;;;26.08;33.81